createdAt,value
2018-09-09T00:00:27.915Z,10.80
2018-09-09T00:01:27.903Z,8.80
2018-09-09T00:02:27.908Z,9.70
2018-09-09T00:03:27.875Z,10.00
2018-09-09T00:04:27.863Z,10.00
2018-09-09T00:05:27.861Z,8.90
2018-09-09T00:06:27.839Z,9.20
2018-09-09T00:07:27.828Z,9.90
2018-09-09T00:08:27.809Z,10.50
2018-09-09T00:09:27.797Z,8.90
2018-09-09T00:10:27.783Z,10.10
2018-09-09T00:11:27.767Z,10.50
2018-09-09T00:12:27.758Z,9.70
2018-09-09T00:13:27.741Z,9.20
2018-09-09T00:14:27.726Z,10.00
2018-09-09T00:15:27.714Z,12.30
2018-09-09T00:16:27.702Z,9.30
2018-09-09T00:17:27.688Z,10.00
2018-09-09T00:18:27.678Z,11.00
2018-09-09T00:19:27.658Z,10.40
2018-09-09T00:20:27.646Z,11.60
2018-09-09T00:21:27.631Z,13.20
2018-09-09T00:22:27.618Z,11.10
2018-09-09T00:23:27.605Z,10.30
2018-09-09T00:24:27.589Z,11.30
2018-09-09T00:25:27.573Z,10.50
2018-09-09T00:26:27.567Z,11.80
2018-09-09T00:27:27.551Z,10.50
2018-09-09T00:28:27.536Z,11.70
2018-09-09T00:29:27.522Z,11.70
2018-09-09T00:30:27.507Z,11.40
2018-09-09T00:31:27.493Z,10.90
2018-09-09T00:32:27.479Z,10.90
2018-09-09T00:33:27.471Z,10.20
2018-09-09T00:34:27.456Z,11.00
2018-09-09T00:35:27.440Z,11.00
2018-09-09T00:36:27.427Z,11.00
2018-09-09T00:37:27.412Z,11.30
2018-09-09T00:38:27.398Z,13.90
2018-09-09T00:39:27.385Z,12.00
2018-09-09T00:40:27.371Z,12.10
2018-09-09T00:41:27.358Z,10.70
2018-09-09T00:42:27.343Z,10.50
2018-09-09T00:43:27.331Z,10.60
2018-09-09T00:44:27.314Z,12.00
2018-09-09T00:45:27.312Z,14.00
2018-09-09T00:46:27.290Z,10.80
2018-09-09T00:47:27.274Z,9.90
2018-09-09T00:48:27.260Z,10.60
2018-09-09T00:49:27.247Z,11.80
2018-09-09T00:50:27.235Z,11.50
2018-09-09T00:51:27.222Z,10.40
2018-09-09T00:52:27.206Z,9.10
2018-09-09T00:53:27.192Z,11.80
2018-09-09T00:54:27.180Z,11.10
2018-09-09T00:55:27.168Z,11.70
2018-09-09T00:56:27.150Z,10.10
2018-09-09T00:57:27.136Z,10.80
2018-09-09T00:58:27.134Z,12.10
2018-09-09T00:59:27.109Z,9.60
2018-09-09T01:00:27.104Z,9.60
2018-09-09T01:01:27.080Z,11.90
2018-09-09T01:02:27.067Z,9.40
2018-09-09T01:03:27.061Z,9.70
2018-09-09T01:04:27.043Z,9.90
2018-09-09T01:05:27.030Z,10.00
2018-09-09T01:06:27.012Z,10.50
2018-09-09T01:07:26.999Z,9.90
2018-09-09T01:08:26.986Z,9.50
2018-09-09T01:09:26.979Z,9.90
2018-09-09T01:10:26.963Z,10.50
2018-09-09T01:11:26.944Z,11.50
2018-09-09T01:12:26.928Z,11.00
2018-09-09T01:13:26.917Z,14.30
2018-09-09T01:14:26.903Z,11.90
2018-09-09T01:15:26.897Z,12.20
2018-09-09T01:16:26.874Z,10.30
2018-09-09T01:17:26.861Z,12.40
2018-09-09T01:18:26.850Z,11.30
2018-09-09T01:19:26.833Z,14.10
2018-09-09T01:20:26.818Z,10.40
2018-09-09T01:21:26.803Z,10.80
2018-09-09T01:22:26.793Z,10.50
2018-09-09T01:23:26.780Z,9.50
2018-09-09T01:24:26.763Z,9.60
2018-09-09T01:25:26.751Z,11.10
2018-09-09T01:26:26.734Z,11.10
2018-09-09T01:27:26.723Z,9.50
2018-09-09T01:28:26.715Z,10.70
2018-09-09T01:29:26.693Z,9.90
2018-09-09T01:30:26.679Z,9.50
2018-09-09T01:31:26.668Z,10.70
2018-09-09T01:32:26.652Z,9.70
2018-09-09T01:33:26.637Z,9.30
2018-09-09T01:34:26.622Z,9.90
2018-09-09T01:35:26.610Z,10.10
2018-09-09T01:36:26.604Z,10.40
2018-09-09T01:37:26.581Z,9.80
2018-09-09T01:38:26.570Z,9.40
2018-09-09T01:39:26.554Z,10.20
2018-09-09T01:40:26.542Z,9.40
2018-09-09T01:41:26.524Z,9.90
2018-09-09T01:42:26.520Z,9.80
2018-09-09T01:43:26.502Z,12.20
2018-09-09T01:44:26.495Z,9.70
2018-09-09T01:45:26.469Z,11.30
2018-09-09T01:46:26.457Z,10.90
2018-09-09T01:47:26.442Z,9.70
2018-09-09T01:48:26.430Z,10.10
2018-09-09T01:49:26.421Z,9.00
2018-09-09T01:50:26.407Z,9.50
2018-09-09T01:51:26.396Z,12.00
2018-09-09T01:52:26.372Z,11.80
2018-09-09T01:53:26.357Z,10.80
2018-09-09T01:54:26.342Z,10.50
2018-09-09T01:55:26.329Z,10.80
2018-09-09T01:56:26.317Z,10.40
2018-09-09T01:57:26.301Z,10.00
2018-09-09T01:58:26.287Z,9.60
2018-09-09T01:59:26.273Z,9.80
2018-09-09T02:00:26.259Z,9.90
2018-09-09T02:01:26.244Z,10.50
2018-09-09T02:02:26.230Z,11.10
2018-09-09T02:03:26.217Z,11.00
2018-09-09T02:04:26.207Z,11.00
2018-09-09T02:05:26.189Z,10.30
2018-09-09T02:06:26.187Z,12.70
2018-09-09T02:07:26.160Z,11.10
2018-09-09T02:08:26.146Z,10.30
2018-09-09T02:09:26.143Z,10.70
2018-09-09T02:10:26.118Z,10.60
2018-09-09T02:11:26.105Z,11.90
2018-09-09T02:12:26.092Z,11.90
2018-09-09T02:13:26.076Z,10.90
2018-09-09T02:14:26.062Z,10.20
2018-09-09T02:15:26.050Z,10.80
2018-09-09T02:16:26.038Z,10.60
2018-09-09T02:17:26.021Z,10.30
2018-09-09T02:18:26.006Z,10.60
2018-09-09T02:19:25.991Z,10.90
2018-09-09T02:20:25.982Z,11.90
2018-09-09T02:21:25.965Z,11.50
2018-09-09T02:22:25.951Z,10.40
2018-09-09T02:23:25.937Z,10.40
2018-09-09T02:24:25.922Z,10.80
2018-09-09T02:25:25.908Z,10.30
2018-09-09T02:26:25.894Z,14.70
2018-09-09T02:27:25.879Z,10.90
2018-09-09T02:28:25.868Z,13.00
2018-09-09T02:29:25.861Z,11.30
2018-09-09T02:30:25.837Z,11.50
2018-09-09T02:31:25.823Z,13.00
2018-09-09T02:32:25.809Z,11.70
2018-09-09T02:33:25.796Z,10.90
2018-09-09T02:34:25.785Z,11.60
2018-09-09T02:35:25.768Z,11.40
2018-09-09T02:36:25.764Z,10.90
2018-09-09T02:37:25.741Z,11.70
2018-09-09T02:38:25.730Z,10.60
2018-09-09T02:39:25.722Z,10.80
2018-09-09T02:40:25.698Z,11.50
2018-09-09T02:41:25.684Z,10.80
2018-09-09T02:42:25.670Z,11.70
2018-09-09T02:43:25.658Z,10.80
2018-09-09T02:44:25.657Z,10.80
2018-09-09T02:45:25.629Z,12.10
2018-09-09T02:46:25.615Z,11.00
2018-09-09T02:47:25.601Z,10.80
2018-09-09T02:48:25.587Z,11.30
2018-09-09T02:49:25.574Z,11.70
2018-09-09T02:50:25.558Z,11.60
2018-09-09T02:51:25.547Z,11.30
2018-09-09T02:52:25.531Z,11.40
2018-09-09T02:53:25.523Z,11.40
2018-09-09T02:54:25.504Z,11.90
2018-09-09T02:55:25.489Z,11.00
2018-09-09T02:56:25.477Z,12.90
2018-09-09T02:57:25.461Z,11.60
2018-09-09T02:58:25.448Z,11.70
2018-09-09T02:59:25.435Z,11.10
2018-09-09T03:00:25.417Z,14.40
2018-09-09T03:01:25.407Z,13.30
2018-09-09T03:02:25.392Z,11.10
2018-09-09T03:03:25.379Z,12.00
2018-09-09T03:04:25.384Z,12.50
2018-09-09T03:05:25.346Z,11.00
2018-09-09T03:06:25.335Z,13.10
2018-09-09T03:07:25.320Z,12.90
2018-09-09T03:08:25.305Z,11.20
2018-09-09T03:09:25.290Z,11.80
2018-09-09T03:10:25.278Z,11.00
2018-09-09T03:11:25.265Z,11.90
2018-09-09T03:12:25.257Z,12.70
2018-09-09T03:13:25.238Z,11.40
2018-09-09T03:14:25.220Z,11.60
2018-09-09T03:15:25.205Z,11.30
2018-09-09T03:16:25.188Z,10.80
2018-09-09T03:17:25.180Z,11.90
2018-09-09T03:18:25.165Z,12.30
2018-09-09T03:19:25.161Z,11.30
2018-09-09T03:20:25.136Z,10.80
2018-09-09T03:21:25.118Z,11.40
2018-09-09T03:22:25.106Z,12.40
2018-09-09T03:23:25.091Z,13.30
2018-09-09T03:24:25.077Z,11.80
2018-09-09T03:25:25.070Z,11.60
2018-09-09T03:26:25.048Z,12.70
2018-09-09T03:27:25.034Z,11.90
2018-09-09T03:28:25.066Z,13.90
2018-09-09T03:29:25.012Z,12.20
2018-09-09T03:30:24.996Z,14.40
2018-09-09T03:31:24.979Z,12.20
2018-09-09T03:32:24.971Z,11.70
2018-09-09T03:33:24.949Z,11.40
2018-09-09T03:34:24.935Z,11.70
2018-09-09T03:35:24.922Z,11.80
2018-09-09T03:36:24.907Z,11.90
2018-09-09T03:37:24.893Z,12.10
2018-09-09T03:38:24.879Z,12.80
2018-09-09T03:39:24.872Z,10.90
2018-09-09T03:40:24.853Z,11.60
2018-09-09T03:41:24.836Z,13.10
2018-09-09T03:42:24.823Z,16.80
2018-09-09T03:43:24.807Z,11.90
2018-09-09T03:44:24.793Z,12.20
2018-09-09T03:45:24.779Z,11.10
2018-09-09T03:46:24.765Z,12.10
2018-09-09T03:47:24.754Z,12.70
2018-09-09T03:48:24.734Z,11.70
2018-09-09T03:49:24.726Z,11.40
2018-09-09T03:50:24.709Z,12.10
2018-09-09T03:51:24.692Z,13.90
2018-09-09T03:52:24.678Z,12.70
2018-09-09T03:53:24.663Z,12.20
2018-09-09T03:54:24.651Z,13.60
2018-09-09T03:55:24.640Z,12.00
2018-09-09T03:56:24.626Z,11.80
2018-09-09T03:57:24.608Z,11.30
2018-09-09T03:58:24.595Z,12.10
2018-09-09T03:59:24.578Z,12.40
2018-09-09T04:00:24.566Z,12.30
2018-09-09T04:01:24.549Z,12.00
2018-09-09T04:02:24.535Z,11.90
2018-09-09T04:03:24.528Z,11.50
2018-09-09T04:04:24.506Z,12.00
2018-09-09T04:05:24.493Z,12.60
2018-09-09T04:06:24.477Z,12.10
2018-09-09T04:07:24.464Z,11.80
2018-09-09T04:08:24.454Z,12.10
2018-09-09T04:09:24.436Z,11.40
2018-09-09T04:10:24.425Z,12.20
2018-09-09T04:11:24.408Z,11.90
2018-09-09T04:12:24.397Z,12.40
2018-09-09T04:13:24.382Z,11.60
2018-09-09T04:14:24.364Z,12.40
2018-09-09T04:15:24.350Z,11.30
2018-09-09T04:16:24.336Z,12.20
2018-09-09T04:17:24.326Z,12.10
2018-09-09T04:18:24.308Z,11.80
2018-09-09T04:19:24.301Z,12.60
2018-09-09T04:20:24.282Z,11.50
2018-09-09T04:21:24.265Z,11.90
2018-09-09T04:22:24.257Z,13.70
2018-09-09T04:23:24.241Z,12.50
2018-09-09T04:24:24.223Z,12.40
2018-09-09T04:25:24.206Z,12.20
2018-09-09T04:26:24.193Z,11.30
2018-09-09T04:27:24.180Z,12.70
2018-09-09T04:28:24.164Z,12.10
2018-09-09T04:29:24.150Z,12.40
2018-09-09T04:30:24.141Z,11.80
2018-09-09T04:31:24.123Z,12.10
2018-09-09T04:32:24.107Z,12.00
2018-09-09T04:33:24.096Z,11.60
2018-09-09T04:34:24.086Z,11.60
2018-09-09T04:35:24.067Z,12.10
2018-09-09T04:36:24.051Z,11.60
2018-09-09T04:37:24.038Z,11.80
2018-09-09T04:38:24.027Z,11.30
2018-09-09T04:39:24.009Z,12.00
2018-09-09T04:40:23.994Z,12.00
2018-09-09T04:41:23.980Z,12.20
2018-09-09T04:42:23.969Z,11.10
2018-09-09T04:43:23.950Z,10.80
2018-09-09T04:44:23.937Z,12.60
2018-09-09T04:45:23.924Z,11.60
2018-09-09T04:46:24.054Z,12.10
2018-09-09T04:47:23.893Z,12.30
2018-09-09T04:48:23.879Z,11.80
2018-09-09T04:49:23.865Z,11.70
2018-09-09T04:50:23.858Z,12.30
2018-09-09T04:51:23.837Z,12.00
2018-09-09T04:52:23.824Z,11.50
2018-09-09T04:53:23.813Z,11.70
2018-09-09T04:54:23.799Z,12.80
2018-09-09T04:55:23.785Z,12.10
2018-09-09T04:56:23.766Z,12.00
2018-09-09T04:57:23.751Z,12.20
2018-09-09T04:58:23.738Z,12.70
2018-09-09T04:59:23.723Z,13.10
2018-09-09T05:00:23.711Z,11.90
2018-09-09T05:01:23.765Z,11.60
2018-09-09T05:02:23.681Z,11.70
2018-09-09T05:03:23.672Z,13.00
2018-09-09T05:04:23.651Z,11.60
2018-09-09T05:05:23.641Z,12.20
2018-09-09T05:06:23.627Z,12.30
2018-09-09T05:07:23.610Z,12.70
2018-09-09T05:08:23.600Z,13.40
2018-09-09T05:09:23.583Z,11.10
2018-09-09T05:10:23.569Z,13.00
2018-09-09T05:11:23.556Z,12.10
2018-09-09T05:12:23.537Z,11.80
2018-09-09T05:13:23.542Z,11.20
2018-09-09T05:14:23.512Z,11.70
2018-09-09T05:15:23.496Z,11.60
2018-09-09T05:16:23.480Z,11.70
2018-09-09T05:17:23.466Z,13.70
2018-09-09T05:18:23.451Z,11.50
2018-09-09T05:19:23.449Z,11.30
2018-09-09T05:20:23.426Z,11.70
2018-09-09T05:21:23.408Z,11.30
2018-09-09T05:22:23.395Z,11.30
2018-09-09T05:23:23.390Z,11.50
2018-09-09T05:24:23.364Z,11.40
2018-09-09T05:25:23.351Z,11.90
2018-09-09T05:26:23.337Z,11.60
2018-09-09T05:27:23.327Z,11.60
2018-09-09T05:28:23.308Z,11.90
2018-09-09T05:29:23.294Z,11.20
2018-09-09T05:30:23.284Z,11.20
2018-09-09T05:31:23.272Z,11.00
2018-09-09T05:32:23.258Z,12.20
2018-09-09T05:33:23.245Z,13.10
2018-09-09T05:34:23.227Z,12.10
2018-09-09T05:35:23.214Z,11.20
2018-09-09T05:36:23.197Z,11.90
2018-09-09T05:37:23.186Z,11.60
2018-09-09T05:38:23.171Z,11.40
2018-09-09T05:39:23.155Z,11.40
2018-09-09T05:40:23.140Z,10.50
2018-09-09T05:41:23.131Z,11.30
2018-09-09T05:42:23.173Z,10.90
2018-09-09T05:43:23.105Z,11.10
2018-09-09T05:44:23.082Z,10.40
2018-09-09T05:45:23.069Z,11.10
2018-09-09T05:46:23.057Z,10.80
2018-09-09T05:47:23.042Z,11.40
2018-09-09T05:48:23.027Z,11.50
2018-09-09T05:49:23.011Z,10.60
2018-09-09T05:50:22.998Z,10.80
2018-09-09T05:51:22.993Z,10.90
2018-09-09T05:52:22.972Z,11.80
2018-09-09T05:53:22.965Z,10.70
2018-09-09T05:54:22.951Z,13.40
2018-09-09T05:55:22.927Z,11.50
2018-09-09T05:56:22.912Z,10.90
2018-09-09T05:57:22.911Z,11.60
2018-09-09T05:58:22.884Z,13.60
2018-09-09T05:59:22.870Z,11.70
2018-09-09T06:00:22.855Z,11.90
2018-09-09T06:01:22.844Z,10.90
2018-09-09T06:02:22.828Z,12.30
2018-09-09T06:03:22.818Z,12.10
2018-09-09T06:04:22.797Z,11.50
2018-09-09T06:05:22.784Z,10.00
2018-09-09T06:06:22.773Z,11.30
2018-09-09T06:07:22.755Z,11.10
2018-09-09T06:08:22.742Z,11.10
2018-09-09T06:09:22.730Z,11.10
2018-09-09T06:10:22.717Z,11.30
2018-09-09T06:11:22.709Z,10.90
2018-09-09T06:12:22.684Z,11.40
2018-09-09T06:13:22.669Z,10.70
2018-09-09T06:14:22.655Z,11.80
2018-09-09T06:15:22.643Z,10.50
2018-09-09T06:16:22.627Z,10.80
2018-09-09T06:17:22.614Z,10.10
2018-09-09T06:18:22.600Z,11.30
2018-09-09T06:19:22.590Z,11.10
2018-09-09T06:20:22.572Z,11.00
2018-09-09T06:21:22.557Z,10.80
2018-09-09T06:22:22.545Z,10.80
2018-09-09T06:23:22.530Z,10.30
2018-09-09T06:24:22.518Z,10.60
2018-09-09T06:25:22.511Z,11.20
2018-09-09T06:26:22.489Z,9.90
2018-09-09T06:27:22.476Z,10.70
2018-09-09T06:28:22.569Z,10.50
2018-09-09T06:29:22.452Z,11.20
2018-09-09T06:30:22.433Z,10.90
2018-09-09T06:31:22.428Z,9.80
2018-09-09T06:32:22.407Z,10.30
2018-09-09T06:33:22.393Z,10.30
2018-09-09T06:34:22.381Z,12.50
2018-09-09T06:35:22.405Z,10.80
2018-09-09T06:36:22.350Z,11.10
2018-09-09T06:37:22.335Z,10.20
2018-09-09T06:38:22.326Z,13.00
2018-09-09T06:39:22.307Z,10.60
2018-09-09T06:40:22.297Z,10.30
2018-09-09T06:41:22.282Z,10.70
2018-09-09T06:42:22.269Z,12.10
2018-09-09T06:43:22.267Z,10.70
2018-09-09T06:44:22.240Z,10.70
2018-09-09T06:45:22.232Z,13.10
2018-09-09T06:46:22.256Z,9.70
2018-09-09T06:47:22.203Z,10.20
2018-09-09T06:48:22.189Z,10.70
2018-09-09T06:49:22.183Z,11.00
2018-09-09T06:50:22.162Z,10.10
2018-09-09T06:51:22.192Z,10.90
2018-09-09T06:52:22.135Z,10.70
2018-09-09T06:53:22.123Z,10.50
2018-09-09T06:54:22.108Z,10.80
2018-09-09T06:55:22.146Z,11.20
2018-09-09T06:56:22.084Z,10.30
2018-09-09T06:57:22.073Z,10.00
2018-09-09T06:58:22.061Z,9.90
2018-09-09T06:59:22.052Z,10.80
2018-09-09T07:00:22.035Z,9.80
2018-09-09T07:01:22.023Z,10.50
2018-09-09T07:02:22.117Z,13.50
2018-09-09T07:03:22.002Z,9.90
2018-09-09T07:04:21.992Z,10.70
2018-09-09T07:05:21.978Z,9.90
2018-09-09T07:06:21.969Z,10.00
2018-09-09T07:07:21.967Z,10.30
2018-09-09T07:08:21.946Z,9.40
2018-09-09T07:09:21.937Z,9.60
2018-09-09T07:10:21.933Z,9.30
2018-09-09T07:11:22.015Z,9.10
2018-09-09T07:12:21.914Z,9.00
2018-09-09T07:13:21.905Z,9.30
2018-09-09T07:14:21.896Z,8.20
2018-09-09T07:15:21.891Z,8.10
2018-09-09T07:16:21.880Z,10.00
2018-09-09T07:17:21.881Z,9.60
2018-09-09T07:18:21.866Z,10.90
2018-09-09T07:19:21.855Z,7.80
2018-09-09T07:20:21.847Z,9.40
2018-09-09T07:21:21.842Z,8.60
2018-09-09T07:22:21.835Z,8.00
2018-09-09T07:23:21.828Z,9.20
2018-09-09T07:24:21.816Z,7.90
2018-09-09T07:25:21.812Z,10.80
2018-09-09T07:26:21.799Z,8.00
2018-09-09T07:27:21.795Z,8.30
2018-09-09T07:28:21.819Z,7.30
2018-09-09T07:29:21.779Z,7.60
2018-09-09T07:30:21.771Z,7.90
2018-09-09T07:31:21.765Z,8.70
2018-09-09T07:32:21.756Z,9.40
2018-09-09T07:33:21.754Z,8.70
2018-09-09T07:34:21.861Z,10.50
2018-09-09T07:35:21.733Z,9.00
2018-09-09T07:36:21.728Z,11.00
2018-09-09T07:37:21.749Z,8.20
2018-09-09T07:38:21.711Z,8.00
2018-09-09T07:39:21.710Z,8.40
2018-09-09T07:40:21.694Z,8.50
2018-09-09T07:41:21.685Z,6.90
2018-09-09T07:42:21.678Z,8.10
2018-09-09T07:43:21.671Z,7.50
2018-09-09T07:44:21.660Z,8.00
2018-09-09T07:45:21.654Z,7.70
2018-09-09T07:46:21.695Z,9.00
2018-09-09T07:47:21.645Z,7.70
2018-09-09T07:48:21.629Z,9.30
2018-09-09T07:49:21.621Z,7.70
2018-09-09T07:50:21.639Z,10.00
2018-09-09T07:51:21.600Z,8.30
2018-09-09T07:52:21.590Z,8.00
2018-09-09T07:53:21.581Z,8.60
2018-09-09T07:54:21.571Z,8.00
2018-09-09T07:55:21.568Z,7.40
2018-09-09T07:56:21.590Z,7.30
2018-09-09T07:57:21.543Z,7.80
2018-09-09T07:58:21.532Z,8.40
2018-09-09T07:59:21.525Z,7.10
2018-09-09T08:00:21.527Z,7.80
2018-09-09T08:01:21.500Z,9.40
2018-09-09T08:02:21.490Z,9.70
2018-09-09T08:03:21.481Z,7.60
2018-09-09T08:04:21.473Z,9.40
2018-09-09T08:05:21.461Z,9.60
2018-09-09T08:06:21.446Z,8.40
2018-09-09T08:07:21.435Z,7.60
2018-09-09T08:08:21.431Z,8.90
2018-09-09T08:09:21.414Z,8.20
2018-09-09T08:10:21.404Z,7.60
2018-09-09T08:11:21.398Z,10.20
2018-09-09T08:12:21.385Z,9.30
2018-09-09T08:13:21.370Z,8.50
2018-09-09T08:14:21.364Z,27.90
2018-09-09T08:15:21.352Z,11.10
2018-09-09T08:16:21.337Z,8.40
2018-09-09T08:17:21.333Z,9.30
2018-09-09T08:18:21.380Z,10.20
2018-09-09T08:19:21.303Z,7.60
2018-09-09T08:20:21.291Z,9.70
2018-09-09T08:21:21.282Z,9.40
2018-09-09T08:22:21.269Z,9.30
2018-09-09T08:23:21.260Z,7.80
2018-09-09T08:24:21.253Z,8.10
2018-09-09T08:25:21.238Z,6.80
2018-09-09T08:26:21.234Z,7.20
2018-09-09T08:27:21.216Z,9.70
2018-09-09T08:28:21.205Z,8.20
2018-09-09T08:29:21.192Z,7.80
2018-09-09T08:30:21.187Z,8.50
2018-09-09T08:31:21.171Z,6.50
2018-09-09T08:32:21.154Z,7.00
2018-09-09T08:33:21.147Z,7.10
2018-09-09T08:34:21.136Z,6.90
2018-09-09T08:35:21.124Z,8.50
2018-09-09T08:36:21.114Z,6.20
2018-09-09T08:37:21.105Z,7.50
2018-09-09T08:38:21.088Z,9.40
2018-09-09T08:39:21.081Z,8.80
2018-09-09T08:40:21.067Z,7.10
2018-09-09T08:41:21.054Z,6.20
2018-09-09T08:42:21.043Z,6.00
2018-09-09T08:43:21.032Z,5.90
2018-09-09T08:44:21.024Z,6.30
2018-09-09T08:45:21.068Z,7.60
2018-09-09T08:46:21.000Z,6.50
2018-09-09T08:47:20.990Z,6.90
2018-09-09T08:48:20.976Z,5.70
2018-09-09T08:49:20.977Z,7.60
2018-09-09T08:50:20.960Z,8.80
2018-09-09T08:51:20.946Z,6.50
2018-09-09T08:52:20.938Z,8.50
2018-09-09T08:53:20.926Z,8.40
2018-09-09T08:54:20.920Z,6.70
2018-09-09T08:55:20.908Z,8.50
2018-09-09T08:56:20.904Z,10.50
2018-09-09T08:57:20.886Z,36.00
2018-09-09T08:58:20.877Z,20.20
2018-09-09T08:59:20.877Z,15.00
2018-09-09T09:00:20.859Z,7.40
2018-09-09T09:01:20.848Z,13.90
2018-09-09T09:02:20.840Z,16.40
2018-09-09T09:03:20.833Z,32.30
2018-09-09T09:04:20.829Z,9.50
2018-09-09T09:05:20.814Z,43.90
2018-09-09T09:06:20.811Z,17.80
2018-09-09T09:07:20.812Z,25.00
2018-09-09T09:08:20.795Z,11.20
2018-09-09T09:09:20.785Z,12.50
2018-09-09T09:10:20.779Z,6.50
2018-09-09T09:11:20.769Z,5.70
2018-09-09T09:12:20.759Z,8.10
2018-09-09T09:13:20.753Z,9.30
2018-09-09T09:14:20.743Z,7.70
2018-09-09T09:15:20.738Z,7.10
2018-09-09T09:16:20.729Z,5.70
2018-09-09T09:17:20.725Z,7.20
2018-09-09T09:18:20.716Z,7.30
2018-09-09T09:19:20.711Z,8.60
2018-09-09T09:20:20.703Z,5.00
2018-09-09T09:21:20.692Z,6.00
2018-09-09T09:22:20.684Z,7.20
2018-09-09T09:23:20.680Z,6.50
2018-09-09T09:24:20.693Z,6.20
2018-09-09T09:25:20.664Z,6.10
2018-09-09T09:26:20.656Z,5.20
2018-09-09T09:27:20.649Z,5.10
2018-09-09T09:28:20.639Z,5.40
2018-09-09T09:29:20.634Z,5.90
2018-09-09T09:30:20.633Z,4.90
2018-09-09T09:31:20.619Z,5.50
2018-09-09T09:32:20.614Z,8.20
2018-09-09T09:33:20.603Z,6.50
2018-09-09T09:34:20.658Z,5.50
2018-09-09T09:35:20.599Z,7.20
2018-09-09T09:36:20.587Z,6.70
2018-09-09T09:37:20.576Z,7.30
2018-09-09T09:38:20.573Z,6.60
2018-09-09T09:39:20.597Z,8.00
2018-09-09T09:40:20.558Z,5.00
2018-09-09T09:41:20.549Z,5.00
2018-09-09T09:42:20.541Z,6.80
2018-09-09T09:43:20.543Z,4.80
2018-09-09T09:44:20.532Z,5.90
2018-09-09T09:45:20.520Z,5.00
2018-09-09T09:46:20.513Z,5.90
2018-09-09T09:47:20.519Z,4.80
2018-09-09T09:48:20.495Z,6.10
2018-09-09T09:49:20.489Z,6.00
2018-09-09T09:50:20.482Z,7.70
2018-09-09T09:51:20.476Z,6.10
2018-09-09T09:52:20.468Z,5.50
2018-09-09T09:53:20.580Z,5.60
2018-09-09T09:54:20.452Z,5.80
2018-09-09T09:55:20.488Z,6.00
2018-09-09T09:56:20.434Z,5.80
2018-09-09T09:57:20.428Z,5.10
2018-09-09T09:58:20.418Z,5.00
2018-09-09T09:59:20.414Z,6.10
2018-09-09T10:00:20.405Z,5.20
2018-09-09T10:01:20.395Z,4.90
2018-09-09T10:02:20.385Z,4.50
2018-09-09T10:03:20.381Z,5.70
2018-09-09T10:04:20.368Z,6.40
2018-09-09T10:05:20.360Z,5.20
2018-09-09T10:06:20.352Z,4.60
2018-09-09T10:07:20.345Z,6.20
2018-09-09T10:08:20.336Z,6.10
2018-09-09T10:09:20.328Z,6.00
2018-09-09T10:10:20.323Z,7.00
2018-09-09T10:11:20.318Z,5.90
2018-09-09T10:12:20.303Z,6.00
2018-09-09T10:13:20.297Z,6.50
2018-09-09T10:14:20.296Z,5.70
2018-09-09T10:15:20.276Z,5.60
2018-09-09T10:16:20.271Z,4.80
2018-09-09T10:17:20.270Z,5.30
2018-09-09T10:18:20.255Z,4.60
2018-09-09T10:19:20.243Z,4.80
2018-09-09T10:20:20.239Z,6.00
2018-09-09T10:21:20.227Z,5.20
2018-09-09T10:22:20.219Z,4.40
2018-09-09T10:23:20.208Z,5.80
2018-09-09T10:24:20.199Z,5.60
2018-09-09T10:25:20.191Z,7.80
2018-09-09T10:26:20.183Z,4.80
2018-09-09T10:27:20.173Z,6.80
2018-09-09T10:28:20.169Z,5.40
2018-09-09T10:29:20.170Z,6.40
2018-09-09T10:30:20.152Z,4.70
2018-09-09T10:31:20.139Z,6.60
2018-09-09T10:32:20.131Z,8.50
2018-09-09T10:33:20.122Z,7.10
2018-09-09T10:34:20.114Z,5.80
2018-09-09T10:35:20.108Z,5.40
2018-09-09T10:36:20.096Z,7.50
2018-09-09T10:37:20.090Z,5.90
2018-09-09T10:38:20.081Z,7.60
2018-09-09T10:39:20.074Z,5.30
2018-09-09T10:40:20.062Z,5.70
2018-09-09T10:41:20.058Z,7.90
2018-09-09T10:42:20.052Z,6.20
2018-09-09T10:43:20.046Z,6.20
2018-09-09T10:44:20.032Z,4.80
2018-09-09T10:45:20.026Z,6.80
2018-09-09T10:46:20.139Z,5.50
2018-09-09T10:47:20.015Z,5.70
2018-09-09T10:48:20.004Z,5.10
2018-09-09T10:49:20.005Z,5.20
2018-09-09T10:50:19.986Z,5.40
2018-09-09T10:51:19.983Z,6.90
2018-09-09T10:52:19.972Z,11.70
2018-09-09T10:53:19.965Z,6.50
2018-09-09T10:54:19.959Z,4.80
2018-09-09T10:55:19.954Z,5.10
2018-09-09T10:56:19.942Z,4.90
2018-09-09T10:57:19.936Z,5.40
2018-09-09T10:58:19.926Z,4.70
2018-09-09T10:59:19.919Z,6.20
2018-09-09T11:00:19.914Z,4.00
2018-09-09T11:01:19.905Z,4.40
2018-09-09T11:02:19.903Z,5.90
2018-09-09T11:03:19.891Z,4.50
2018-09-09T11:04:19.884Z,4.80
2018-09-09T11:05:19.878Z,4.20
2018-09-09T11:06:19.870Z,4.80
2018-09-09T11:07:19.863Z,4.50
2018-09-09T11:08:19.862Z,4.80
2018-09-09T11:09:19.851Z,5.00
2018-09-09T11:10:19.843Z,5.10
2018-09-09T11:11:19.835Z,6.40
2018-09-09T11:12:19.829Z,4.00
2018-09-09T11:13:19.827Z,6.60
2018-09-09T11:14:19.814Z,8.00
2018-09-09T11:15:19.809Z,4.70
2018-09-09T11:16:19.807Z,4.20
2018-09-09T11:17:19.798Z,4.40
2018-09-09T11:18:19.787Z,6.50
2018-09-09T11:19:19.796Z,4.20
2018-09-09T11:20:19.777Z,4.70
2018-09-09T11:21:19.774Z,3.90
2018-09-09T11:22:19.763Z,5.00
2018-09-09T11:23:19.760Z,4.80
2018-09-09T11:24:19.785Z,4.70
2018-09-09T11:25:19.745Z,4.80
2018-09-09T11:26:19.730Z,5.50
2018-09-09T11:27:19.730Z,3.90
2018-09-09T11:28:19.724Z,3.90
2018-09-09T11:29:19.710Z,4.00
2018-09-09T11:30:19.698Z,6.00
2018-09-09T11:31:19.708Z,4.70
2018-09-09T11:32:19.681Z,4.30
2018-09-09T11:33:19.675Z,5.10
2018-09-09T11:34:19.678Z,4.70
2018-09-09T11:35:19.663Z,3.70
2018-09-09T11:36:19.685Z,5.20
2018-09-09T11:37:19.649Z,4.80
2018-09-09T11:38:19.639Z,4.30
2018-09-09T11:39:19.640Z,3.50
2018-09-09T11:40:19.624Z,5.00
2018-09-09T11:41:19.614Z,6.00
2018-09-09T11:42:19.613Z,4.60
2018-09-09T11:43:19.613Z,5.10
2018-09-09T11:44:19.599Z,5.20
2018-09-09T11:45:19.591Z,6.20
2018-09-09T11:46:19.578Z,5.00
2018-09-09T11:47:19.579Z,5.00
2018-09-09T11:48:19.569Z,7.50
2018-09-09T11:49:19.556Z,6.00
2018-09-09T11:50:19.552Z,7.10
2018-09-09T11:51:19.546Z,5.00
2018-09-09T11:52:19.530Z,6.20
2018-09-09T11:53:19.626Z,5.20
2018-09-09T11:54:19.518Z,5.30
2018-09-09T11:55:19.508Z,5.50
2018-09-09T11:56:19.504Z,5.70
2018-09-09T11:57:19.492Z,4.80
2018-09-09T11:58:19.482Z,5.70
2018-09-09T11:59:19.483Z,5.30
2018-09-09T12:00:19.467Z,4.80
2018-09-09T12:01:19.460Z,4.60
2018-09-09T12:02:19.454Z,5.10
2018-09-09T12:03:19.457Z,6.20
2018-09-09T12:04:19.440Z,4.80
2018-09-09T12:05:19.431Z,4.50
2018-09-09T12:06:19.425Z,7.10
2018-09-09T12:07:19.427Z,6.40
2018-09-09T12:08:19.406Z,4.80
2018-09-09T12:09:19.400Z,4.50
2018-09-09T12:10:19.396Z,5.00
2018-09-09T12:11:19.391Z,4.20
2018-09-09T12:12:19.379Z,28.80
2018-09-09T12:13:19.370Z,9.30
2018-09-09T12:14:19.374Z,5.10
2018-09-09T12:15:19.361Z,5.20
2018-09-09T12:16:19.348Z,6.40
2018-09-09T12:17:19.346Z,4.20
2018-09-09T12:18:19.356Z,5.30
2018-09-09T12:19:19.332Z,3.30
2018-09-09T12:20:19.338Z,4.40
2018-09-09T12:21:19.321Z,4.60
2018-09-09T12:22:19.308Z,3.70
2018-09-09T12:23:19.303Z,4.70
2018-09-09T12:24:19.305Z,6.10
2018-09-09T12:25:19.290Z,6.20
2018-09-09T12:26:19.286Z,4.50
2018-09-09T12:27:19.274Z,6.00
2018-09-09T12:28:19.265Z,4.80
2018-09-09T12:29:19.270Z,4.50
2018-09-09T12:30:19.257Z,3.30
2018-09-09T12:31:19.245Z,4.10
2018-09-09T12:32:19.326Z,5.80
2018-09-09T12:33:19.234Z,3.70
2018-09-09T12:34:19.226Z,3.70
2018-09-09T12:35:19.217Z,4.80
2018-09-09T12:36:19.210Z,3.80
2018-09-09T12:37:19.209Z,4.70
2018-09-09T12:38:19.197Z,5.10
2018-09-09T12:39:19.189Z,5.30
2018-09-09T12:40:19.181Z,3.30
2018-09-09T12:41:19.178Z,4.10
2018-09-09T12:42:19.183Z,3.10
2018-09-09T12:43:19.160Z,3.40
2018-09-09T12:44:19.153Z,3.70
2018-09-09T12:45:19.145Z,3.20
2018-09-09T12:46:19.140Z,3.70
2018-09-09T12:47:19.284Z,2.80
2018-09-09T12:48:19.127Z,4.50
2018-09-09T12:49:19.133Z,3.00
2018-09-09T12:50:19.114Z,3.20
2018-09-09T12:51:19.112Z,3.50
2018-09-09T12:52:19.097Z,5.10
2018-09-09T12:53:19.123Z,4.10
2018-09-09T12:54:19.091Z,4.40
2018-09-09T12:55:19.090Z,4.50
2018-09-09T12:56:19.069Z,4.20
2018-09-09T12:57:19.066Z,4.70
2018-09-09T12:58:19.057Z,3.20
2018-09-09T12:59:19.063Z,3.00
2018-09-09T13:00:19.090Z,3.60
2018-09-09T13:01:19.044Z,3.10
2018-09-09T13:02:19.032Z,3.90
2018-09-09T13:03:19.034Z,3.00
2018-09-09T13:04:19.018Z,3.10